Αρχική σελίδα
METAR-TAF:

METAR-TAF

Αεροδρόμια :

Πόλη του Κουβέιτ, Κουβέιτ

γεωγραφικό πλάτος: 29-13N, γεωγραφικό μήκος: 047-59E, υψόμετρο: 55 μ

Παρών καιρός

Η αναφορά έγινε 51 λεπτά πριν, στις 18:00 UTC
Άνεμος 12 kt από Β/BΔ
Θερμοκρασία 21°C
Υγρασία 78%
Πίεση 1021 hPa
Ορατότητα 10 χλμ και άνω
Δεν υπάρχουν νέφη με βάση κάτω από τα 1500 μ. και δεν υπάρχουν νέφη σωρειτομελανίτες.

METAR: OKBK 161800Z 34012KT CAVOK 21/17 Q1021 NOSIG

Χρόνος: 21:51 (18:51 UTC)

Πρόγνωση Καιρού

Η αναφορά έγινε 2 ώρες και 6 λεπτά πριν, στις 16:45 UTC
Η πρόγνωση ισχύει από τις 16 στις 18 UTC έως τις 17 στις 24 UTC
Άνεμος 10 kt από Β
Ορατότητα: 7000 μ
Προσωρινά
από 16 στις 21 UTC έως τις 17 στις 03 UTC
Άνεμος 3 kt από μεταβλητές κατευθύνσεις
Ορατότητα: 2000 μ
Αχλής

TAF: OKBK 161645Z 1618/1724 35010KT 7000 NSC TEMPO 1621/1703 VRB03KT 2000 BR

Μετεωρολογικές αναφορές και προγνώσεις για περισσότερα από 4000 αεροδρόμια (δελτία METAR και TAF).

Οι διαθέσιμοι σταθμοί απεικονίζονται στο χάρτη με κίτρινες και κόκκινες κουκκίδες.

Μετακινήστε το ποντίκι πάνω από τις κουκκίδες για να δείτε το όνομα του σταθμού.

Στη συνέχεια, κάντε κλικ για να δείτε τις μετεωρολογικές αναφορές και τις προγνώσεις καιρού.

Για να αλλάξετε το χάρτη: κάντε κλικ στα πράσινα κουμπιά με τον μαύρο σταυρό για να ζουμάρετε, στο πράσινο κουμπί με την παύλα για να αφαιρέσετε το ζουμ ή στα πράσινα βέλη για να αντιπαραβάλλετε χάρτες.


METAR-TAF: